Time;durP1;ratioP1;P1;durP2;ratioP2;P2;SDS_P1;SDS_P2;PMS_P1;PMS_P2;Temp;Humidity;BMP_temperature;BMP_pressure;BME280_temperature;BME280_humidity;BME280_pressure;Samples;Min_cycle;Max_cycle;Signal;HPM_P1;HPM_P2
2023/11/12 00:00:39;;;;;;;;;;;5.60;99.90;;;4.86;100.00;96960.72;5040662;28;1406;-69
2023/11/12 00:03:06;;;;;;;;;;;5.60;99.90;;;4.84;100.00;96962.50;5040001;28;1503;-69
2023/11/12 00:05:33;;;;;;;;;;;5.60;99.90;;;4.91;100.00;96952.00;5042144;28;1952;-69
2023/11/12 00:08:00;;;;;;;;;;;5.70;99.90;;;4.82;100.00;96953.09;5038318;28;1608;-69
2023/11/12 00:10:27;;;;;;;;;;;5.70;99.90;;;5.03;100.00;96946.47;5042299;28;1906;-69
2023/11/12 00:12:54;;;;;;;;;;;5.80;99.90;;;5.09;100.00;96948.03;5037561;28;1609;-68
2023/11/12 00:15:21;;;;;;;;;;;5.80;99.90;;;5.05;100.00;96946.44;5037305;28;1462;-69
2023/11/12 00:17:48;;;;;;;;;;;5.80;99.90;;;4.98;100.00;96937.22;5034994;28;1708;-68
2023/11/12 00:20:15;;;;;;;;;;;5.90;99.90;;;5.04;100.00;96944.75;5039146;28;1600;-68
2023/11/12 00:22:43;;;;;;;;;;;5.90;99.90;;;5.03;100.00;96945.63;5043290;28;1522;-69
2023/11/12 00:25:13;;;;;;;;;;;5.90;99.90;;;5.04;100.00;96942.19;5038441;28;1907;-68
2023/11/12 00:27:41;;;;;;;;;;;5.90;99.90;;;5.05;100.00;96935.31;5038138;28;1628;-69
2023/11/12 00:30:09;;;;;;;;;;;5.90;99.90;;;5.14;100.00;96937.59;5038390;28;1907;-69
2023/11/12 00:32:36;;;;;;;;;;;5.90;99.90;;;5.10;100.00;96928.28;5037006;28;1411;-68
2023/11/12 00:35:05;;;;;;;;;;;5.90;99.90;;;4.88;100.00;96934.09;5038157;28;1675;-68
2023/11/12 00:37:32;;;;;;;;;;;5.80;99.90;;;5.01;100.00;96927.66;5037198;28;1437;-68
2023/11/12 00:39:59;;;;;;;;;;;5.90;99.90;;;4.90;100.00;96924.56;5039717;28;1508;-68
2023/11/12 00:42:29;;;;;;;;;;;5.80;99.90;;;4.90;100.00;96923.75;5038732;28;1407;-68
2023/11/12 00:44:57;;;;;;;;;;;5.80;99.90;;;5.00;100.00;96923.41;5037997;28;1408;-68
2023/11/12 00:47:25;;;;;;;;;;;5.80;99.90;;;4.93;100.00;96919.34;5034501;28;1704;-68
2023/11/12 00:49:53;;;;;;;;;;;5.80;99.90;;;5.01;100.00;96916.53;5037662;28;1721;-69
2023/11/12 00:52:20;;;;;;;;;;;5.80;99.90;;;5.04;100.00;96911.31;5040837;28;2029;-68
2023/11/12 00:54:47;;;;;;;;;;;5.80;99.90;;;5.12;100.00;96919.63;5041306;28;1685;-68
2023/11/12 00:57:14;;;;;;;;;;;5.90;99.90;;;5.02;100.00;96913.09;5038848;28;1647;-68
2023/11/12 00:59:42;;;;;;;;;;;5.80;99.90;;;5.12;100.00;96911.06;5037559;28;1767;-68
2023/11/12 01:02:10;;;;;;;;;;;5.80;99.90;;;5.08;100.00;96912.88;5037611;28;1644;-68
2023/11/12 01:04:37;;;;;;;;;;;5.80;99.90;;;5.10;100.00;96910.28;5035866;28;1680;-69
2023/11/12 01:07:04;;;;;;;;;;;5.80;99.90;;;5.08;100.00;96919.75;5036690;28;1629;-68
2023/11/12 01:09:31;;;;;;;;;;;5.80;99.90;;;5.02;100.00;96911.34;5038007;28;1593;-69
2023/11/12 01:11:59;;;;;;;;;;;5.80;99.90;;;5.10;100.00;96893.09;5040065;28;1926;-68
2023/11/12 01:14:26;;;;;;;;;;;5.90;99.90;;;5.07;100.00;96900.09;5040695;28;1480;-68
2023/11/12 01:16:53;;;;;;;;;;;5.80;99.90;;;5.12;100.00;96904.19;5036432;28;1615;-67
2023/11/12 01:19:20;;;;;;;;;;;5.80;99.90;;;5.02;100.00;96893.34;5038248;28;1716;-67
2023/11/12 01:21:47;;;;;;;;;;;5.80;99.90;;;5.16;100.00;96889.50;5041227;28;1994;-67
2023/11/12 01:24:13;;;;;;;;;;;5.80;99.90;;;5.21;100.00;96885.88;5039749;28;1625;-66
2023/11/12 01:26:40;;;;;;;;;;;5.90;99.90;;;5.17;100.00;96876.56;5036919;28;1536;-67
2023/11/12 01:29:07;;;;;;;;;;;6.00;99.90;;;5.00;100.00;96878.88;5041616;28;1640;-67
2023/11/12 01:31:34;;;;;;;;;;;5.90;99.90;;;5.02;100.00;96879.66;5038025;28;1938;-67
2023/11/12 01:34:01;;;;;;;;;;;5.90;99.90;;;5.04;100.00;96877.88;5038796;28;1998;-68
2023/11/12 01:36:28;;;;;;;;;;;5.90;99.90;;;5.11;100.00;96879.38;5036982;28;1687;-68
2023/11/12 01:38:56;;;;;;;;;;;6.00;99.90;;;5.03;100.00;96874.44;5036772;28;1855;-67
2023/11/12 01:41:23;;;;;;;;;;;5.90;99.90;;;5.07;100.00;96869.22;5039262;28;1614;-67
2023/11/12 01:43:50;;;;;;;;;;;5.90;99.90;;;5.15;100.00;96872.38;5037485;28;1502;-67
2023/11/12 01:46:18;;;;;;;;;;;5.90;99.90;;;5.03;100.00;96865.88;5035813;28;1639;-68
2023/11/12 01:48:46;;;;;;;;;;;5.90;99.90;;;5.03;100.00;96860.75;5039868;28;1526;-67
2023/11/12 01:51:13;;;;;;;;;;;5.80;99.90;;;5.11;100.00;96860.50;5037748;28;2001;-67
2023/11/12 01:53:41;;;;;;;;;;;5.90;99.90;;;4.98;100.00;96860.91;5035209;28;1687;-67
2023/11/12 01:56:10;;;;;;;;;;;5.90;99.90;;;5.03;100.00;96853.03;5037725;28;1593;-68
2023/11/12 01:58:37;;;;;;;;;;;5.80;99.90;;;5.15;100.00;96851.78;5039402;28;1717;-67
2023/11/12 02:01:05;;;;;;;;;;;5.90;99.90;;;5.16;100.00;96844.03;5035888;28;1570;-67
2023/11/12 02:03:32;;;;;;;;;;;6.00;99.90;;;5.12;100.00;96845.00;5038298;28;1638;-68
2023/11/12 02:05:59;;;;;;;;;;;5.90;99.90;;;5.00;100.00;96846.25;5038102;28;1756;-68
2023/11/12 02:08:26;;;;;;;;;;;6.00;99.90;;;5.10;100.00;96836.50;5040635;28;1488;-69
2023/11/12 02:10:53;;;;;;;;;;;6.00;99.90;;;5.15;100.00;96833.78;5041538;28;1981;-67
2023/11/12 02:13:21;;;;;;;;;;;6.00;99.90;;;5.18;100.00;96825.97;5034003;28;2295;-67
2023/11/12 02:15:50;;;;;;;;;;;6.00;99.90;;;5.15;100.00;96823.50;5042751;28;1589;-67
2023/11/12 02:18:17;;;;;;;;;;;6.00;99.90;;;5.18;100.00;96825.97;5043692;28;1592;-69
2023/11/12 02:20:45;;;;;;;;;;;6.00;99.90;;;5.22;100.00;96812.09;5043127;28;1817;-68
2023/11/12 02:23:15;;;;;;;;;;;6.10;99.90;;;5.28;100.00;96805.94;5041852;28;1645;-68
2023/11/12 02:25:45;;;;;;;;;;;6.10;99.90;;;5.22;100.00;96810.38;5039983;28;1515;-68
2023/11/12 02:28:15;;;;;;;;;;;6.10;99.90;;;5.17;100.00;96808.84;5037087;28;1891;-67
2023/11/12 02:30:42;;;;;;;;;;;6.10;99.90;;;5.22;100.00;96805.25;5042648;28;2011;-68
2023/11/12 02:33:09;;;;;;;;;;;6.00;99.90;;;5.32;100.00;96810.91;5046161;28;1682;-67
2023/11/12 02:35:42;;;;;;;;;;;6.00;99.90;;;5.31;100.00;96813.53;5039590;28;1813;-67
2023/11/12 02:38:12;;;;;;;;;;;6.00;99.90;;;5.30;100.00;96812.69;5043320;28;1558;-67
2023/11/12 02:40:39;;;;;;;;;;;6.00;99.90;;;5.37;100.00;96815.91;5040649;28;1675;-67
2023/11/12 02:43:07;;;;;;;;;;;6.10;99.90;;;5.42;100.00;96814.00;5041718;28;1649;-67
2023/11/12 02:45:33;;;;;;;;;;;6.10;99.90;;;5.21;100.00;96808.69;5037682;28;1635;-67
2023/11/12 02:48:01;;;;;;;;;;;6.10;99.90;;;5.09;100.00;96813.44;5047062;28;1681;-67
2023/11/12 02:50:31;;;;;;;;;;;6.00;99.90;;;5.16;100.00;96820.88;5038628;28;1522;-67
2023/11/12 02:53:04;;;;;;;;;;;6.00;99.90;;;5.09;100.00;96826.28;5039127;28;1906;-66
2023/11/12 02:55:32;;;;;;;;;;;5.90;99.90;;;5.05;100.00;96816.97;5041426;28;1446;-67
2023/11/12 02:57:59;;;;;;;;;;;5.90;99.90;;;5.05;100.00;96819.56;5044532;28;1427;-67
2023/11/12 03:00:30;;;;;;;;;;;5.80;99.90;;;5.10;100.00;96823.66;5028251;28;1946;-70
2023/11/12 03:03:00;;;;;;;;;;;5.80;99.90;;;5.11;100.00;96824.47;5043653;28;1462;-67
2023/11/12 03:05:28;;;;;;;;;;;5.90;99.90;;;5.06;100.00;96816.06;5043225;28;1715;-68
2023/11/12 03:07:57;;;;;;;;;;;5.90;99.90;;;5.17;100.00;96819.13;5041629;28;1607;-66
2023/11/12 03:10:25;;;;;;;;;;;5.90;99.90;;;5.10;100.00;96809.94;5042835;28;1556;-67
2023/11/12 03:12:53;;;;;;;;;;;5.80;99.90;;;5.25;100.00;96806.88;5045465;28;1910;-67
2023/11/12 03:15:21;;;;;;;;;;;5.90;99.90;;;5.24;100.00;96800.03;5042674;28;1406;-68
2023/11/12 03:17:50;;;;;;;;;;;6.00;99.90;;;5.22;100.00;96802.66;5040869;28;1249;-67
2023/11/12 03:20:18;;;;;;;;;;;6.00;99.90;;;5.37;100.00;96792.75;5046523;28;1469;-67
2023/11/12 03:22:45;;;;;;;;;;;6.10;99.90;;;5.49;100.00;96783.75;5036050;28;1462;-67
2023/11/12 03:25:11;;;;;;;;;;;6.10;99.90;;;5.53;100.00;96772.47;5044492;28;1500;-67
2023/11/12 03:27:38;;;;;;;;;;;6.20;99.90;;;5.55;100.00;96771.50;5042703;28;1553;-67
2023/11/12 03:30:09;;;;;;;;;;;6.20;99.90;;;5.56;100.00;96773.16;5043212;28;1429;-67
2023/11/12 03:32:36;;;;;;;;;;;6.20;99.90;;;5.54;100.00;96767.25;5042618;28;1910;-67
2023/11/12 03:35:03;;;;;;;;;;;6.30;99.90;;;5.39;100.00;96768.63;5043088;28;1581;-68
2023/11/12 03:37:30;;;;;;;;;;;6.20;99.90;;;5.33;100.00;96766.25;5039265;28;1415;-67
2023/11/12 03:39:57;;;;;;;;;;;6.10;99.90;;;5.33;100.00;96760.28;5040480;28;1779;-68
2023/11/12 03:42:24;;;;;;;;;;;6.10;99.90;;;5.36;100.00;96758.47;5041639;28;1374;-68
2023/11/12 03:44:55;;;;;;;;;;;6.00;99.90;;;5.40;100.00;96754.84;5046243;28;1408;-67
2023/11/12 03:47:23;;;;;;;;;;;6.10;99.90;;;5.50;100.00;96746.84;5041504;28;1525;-67
2023/11/12 03:49:50;;;;;;;;;;;6.10;99.90;;;5.32;100.00;96746.59;5043266;28;1401;-67
2023/11/12 03:52:17;;;;;;;;;;;6.10;99.90;;;5.30;100.00;96745.78;5040875;28;1906;-69
2023/11/12 03:54:44;;;;;;;;;;;6.20;99.90;;;5.31;100.00;96746.63;5040876;28;1574;-68
2023/11/12 03:57:11;;;;;;;;;;;6.10;99.90;;;5.19;100.00;96733.28;5043712;28;1411;-68
2023/11/12 03:59:38;;;;;;;;;;;6.10;99.90;;;5.33;100.00;96731.97;5044483;28;1419;-68
2023/11/12 04:02:05;;;;;;;;;;;6.10;99.90;;;5.34;100.00;96739.66;5040471;28;1452;-67
2023/11/12 04:04:32;;;;;;;;;;;6.10;99.90;;;5.33;100.00;96734.53;5044044;28;1375;-67
2023/11/12 04:06:59;;;;;;;;;;;6.20;99.90;;;5.35;100.00;96728.44;5040398;28;1516;-68
2023/11/12 04:09:27;;;;;;;;;;;6.20;99.90;;;5.38;100.00;96723.22;5039090;28;1366;-69
2023/11/12 04:11:54;;;;;;;;;;;6.20;99.90;;;5.25;100.00;96719.38;5042402;28;1910;-67
2023/11/12 04:14:20;;;;;;;;;;;6.10;99.90;;;5.27;100.00;96717.59;5043569;28;1548;-67
2023/11/12 04:16:47;;;;;;;;;;;6.20;99.90;;;5.26;100.00;96712.50;5040181;28;1695;-67
2023/11/12 04:19:14;;;;;;;;;;;6.10;99.90;;;5.31;100.00;96713.19;5041774;28;1639;-68
2023/11/12 04:21:45;;;;;;;;;;;6.20;99.90;;;5.35;100.00;96717.31;5038874;28;1437;-68
2023/11/12 04:24:12;;;;;;;;;;;6.10;99.90;;;5.42;100.00;96718.78;5037270;28;1598;-67
2023/11/12 04:26:39;;;;;;;;;;;6.20;99.90;;;5.42;100.00;96719.63;5041965;28;1464;-68
2023/11/12 04:29:07;;;;;;;;;;;6.20;99.90;;;5.62;100.00;96725.78;5044573;28;1428;-67
2023/11/12 04:31:35;;;;;;;;;;;6.30;99.90;;;5.48;100.00;96712.59;5039489;28;1990;-67
2023/11/12 04:34:03;;;;;;;;;;;6.30;99.90;;;5.43;100.00;96708.44;5036180;28;1192;-68
2023/11/12 04:36:30;;;;;;;;;;;6.30;99.90;;;5.52;100.00;96714.13;5041366;28;1590;-68
2023/11/12 04:38:57;;;;;;;;;;;6.20;99.90;;;5.51;100.00;96717.63;5038836;28;1929;-67
2023/11/12 04:41:25;;;;;;;;;;;6.20;99.90;;;5.30;100.00;96719.22;5024560;28;1394;-67
2023/11/12 04:43:53;;;;;;;;;;;6.20;99.90;;;5.28;100.00;96732.13;5041795;28;1717;-67
2023/11/12 04:46:21;;;;;;;;;;;6.20;99.90;;;5.03;100.00;96738.13;5037648;28;1497;-68
2023/11/12 04:48:48;;;;;;;;;;;6.10;99.90;;;4.99;100.00;96733.97;5037320;28;1281;-67
2023/11/12 04:51:17;;;;;;;;;;;6.00;99.90;;;5.12;100.00;96731.81;5039094;28;1898;-68
2023/11/12 04:53:44;;;;;;;;;;;6.00;99.90;;;5.31;100.00;96736.34;5041975;28;1440;-66
2023/11/12 04:56:11;;;;;;;;;;;6.10;99.90;;;5.47;100.00;96744.34;5042205;28;1517;-67
2023/11/12 04:58:38;;;;;;;;;;;6.10;99.90;;;5.23;100.00;96739.19;5028752;28;1713;-66
2023/11/12 05:01:08;;;;;;;;;;;6.10;99.90;;;5.14;100.00;96744.66;5040629;28;1593;-67
2023/11/12 05:03:35;;;;;;;;;;;6.00;99.90;;;5.09;100.00;96744.81;5039225;28;1430;-67
2023/11/12 05:06:04;;;;;;;;;;;6.00;99.90;;;5.29;100.00;96738.97;5039076;28;1425;-67
2023/11/12 05:08:31;;;;;;;;;;;6.00;99.90;;;5.24;100.00;96744.28;5040610;28;1315;-66
2023/11/12 05:10:58;;;;;;;;;;;6.00;99.90;;;5.08;100.00;96748.25;5041585;28;1418;-67
2023/11/12 05:13:25;;;;;;;;;;;5.90;99.90;;;5.13;100.00;96750.66;5040558;28;1910;-67
2023/11/12 05:15:52;;;;;;;;;;;5.80;99.90;;;5.17;100.00;96750.50;5041308;28;1600;-68
2023/11/12 05:18:19;;;;;;;;;;;5.80;99.90;;;5.22;100.00;96745.22;5039691;28;1386;-67
2023/11/12 05:20:47;;;;;;;;;;;5.80;99.90;;;5.28;100.00;96750.16;5039297;28;1300;-67
2023/11/12 05:23:14;;;;;;;;;;;5.90;99.90;;;5.21;100.00;96754.66;5040501;28;1233;-68
2023/11/12 05:25:41;;;;;;;;;;;5.90;99.90;;;5.05;100.00;96750.94;5040949;28;1253;-66
2023/11/12 05:28:08;;;;;;;;;;;6.00;99.90;;;5.17;100.00;96759.97;5040728;28;1467;-67
2023/11/12 05:30:35;;;;;;;;;;;5.90;99.90;;;5.17;100.00;96757.41;5039640;28;1488;-67
2023/11/12 05:33:02;;;;;;;;;;;6.00;99.90;;;5.10;100.00;96764.47;5040197;28;1915;-67
2023/11/12 05:35:29;;;;;;;;;;;5.80;99.90;;;5.08;100.00;96768.00;5037914;28;1246;-67
2023/11/12 05:37:56;;;;;;;;;;;5.80;99.90;;;5.07;100.00;96771.47;5042326;28;1306;-66
2023/11/12 05:40:23;;;;;;;;;;;5.80;99.90;;;4.98;100.00;96768.31;5046227;28;1216;-67
2023/11/12 05:42:50;;;;;;;;;;;5.80;99.90;;;4.96;100.00;96779.53;5039224;28;1503;-67
2023/11/12 05:45:17;;;;;;;;;;;5.80;99.90;;;5.03;100.00;96783.59;5041672;28;1363;-68
2023/11/12 05:47:45;;;;;;;;;;;5.80;99.90;;;5.04;100.00;96790.44;5040205;28;1232;-67
2023/11/12 05:50:12;;;;;;;;;;;5.90;99.90;;;5.07;100.00;96789.47;5042459;28;1401;-67
2023/11/12 05:52:40;;;;;;;;;;;5.90;99.90;;;5.15;100.00;96783.16;5039822;28;1909;-67
2023/11/12 05:55:07;;;;;;;;;;;6.00;99.90;;;5.09;100.00;96788.53;5040658;28;1403;-67
2023/11/12 05:57:34;;;;;;;;;;;5.90;99.90;;;5.25;100.00;96786.28;5037604;28;1392;-67
2023/11/12 06:00:01;;;;;;;;;;;6.00;99.90;;;5.37;100.00;96796.16;5037037;28;1406;-68
2023/11/12 06:02:27;;;;;;;;;;;6.00;99.90;;;5.40;100.00;96793.47;5039379;28;1520;-67
2023/11/12 06:04:54;;;;;;;;;;;6.10;99.90;;;5.42;100.00;96794.25;5041632;28;1464;-67
2023/11/12 06:07:21;;;;;;;;;;;6.20;99.90;;;5.44;100.00;96795.03;5043711;28;1462;-69
2023/11/12 06:09:51;;;;;;;;;;;6.10;99.90;;;5.45;100.00;96799.31;5039520;28;1378;-67
2023/11/12 06:12:18;;;;;;;;;;;6.10;99.90;;;5.26;100.00;96799.97;5040353;28;1898;-67
2023/11/12 06:14:45;;;;;;;;;;;6.10;99.90;;;5.20;100.00;96803.59;5037398;28;1461;-68
2023/11/12 06:17:14;;;;;;;;;;;6.10;99.90;;;5.23;100.00;96801.78;5039608;28;1756;-66
2023/11/12 06:19:43;;;;;;;;;;;6.10;99.90;;;5.38;100.00;96805.56;5037989;28;1236;-67
2023/11/12 06:22:10;;;;;;;;;;;6.10;99.90;;;5.43;100.00;96802.84;5040885;28;1421;-67
2023/11/12 06:24:36;;;;;;;;;;;6.10;99.90;;;5.42;100.00;96804.53;5033813;28;1409;-67
2023/11/12 06:27:04;;;;;;;;;;;6.00;99.90;;;5.19;100.00;96807.06;5041866;28;1327;-66
2023/11/12 06:29:31;;;;;;;;;;;6.00;99.90;;;5.29;100.00;96810.16;5038847;28;1525;-68
2023/11/12 06:31:58;;;;;;;;;;;6.00;99.90;;;5.19;100.00;96815.63;5038165;28;1997;-67
2023/11/12 06:34:25;;;;;;;;;;;6.00;99.90;;;5.12;100.00;96827.00;5039435;28;1573;-68
2023/11/12 06:36:52;;;;;;;;;;;6.00;99.90;;;5.08;100.00;96828.00;5037843;28;1291;-67
2023/11/12 06:39:19;;;;;;;;;;;6.00;99.90;;;5.14;100.00;96824.41;5037592;28;1381;-67
2023/11/12 06:41:46;;;;;;;;;;;6.00;99.90;;;5.01;100.00;96829.91;5037620;28;1320;-67
2023/11/12 06:44:13;;;;;;;;;;;5.90;99.90;;;4.90;100.00;96833.72;5038011;28;1394;-68
2023/11/12 06:46:45;;;;;;;;;;;5.80;99.90;;;4.71;100.00;96844.59;5039389;28;1548;-68
2023/11/12 06:49:14;;;;;;;;;;;5.80;99.90;;;4.80;100.00;96849.44;5041676;28;1346;-68
2023/11/12 06:51:42;;;;;;;;;;;5.70;99.90;;;4.77;100.00;96849.56;5043600;28;1902;-68
2023/11/12 06:54:09;;;;;;;;;;;5.70;99.90;;;4.72;100.00;96853.16;5042323;28;1599;-67
2023/11/12 06:56:36;;;;;;;;;;;5.70;99.90;;;4.88;100.00;96851.81;5042975;28;1760;-67
2023/11/12 06:59:03;;;;;;;;;;;5.60;99.90;;;4.88;100.00;96854.38;5041684;28;1496;-67
2023/11/12 07:01:31;;;;;;;;;;;5.60;99.90;;;4.90;100.00;96856.88;5040528;28;1386;-67
2023/11/12 07:03:59;;;;;;;;;;;5.70;99.90;;;4.96;100.00;96861.84;5042343;28;1448;-67
2023/11/12 07:06:26;;;;;;;;;;;5.70;99.90;;;5.10;100.00;96864.81;5043860;28;1207;-67
2023/11/12 07:08:53;;;;;;;;;;;5.80;99.90;;;4.86;100.00;96865.56;5044969;28;1449;-67
2023/11/12 07:11:20;;;;;;;;;;;5.80;99.90;;;4.85;100.00;96867.31;5041478;28;1474;-68
2023/11/12 07:13:47;;;;;;;;;;;5.70;99.90;;;4.81;100.00;96869.16;5040454;28;1977;-67
2023/11/12 07:16:16;;;;;;;;;;;5.60;99.90;;;4.96;100.00;96866.97;5043345;28;1551;-67
2023/11/12 07:18:44;;;;;;;;;;;5.50;99.90;;;4.97;100.00;96866.94;5043344;28;1443;-67
2023/11/12 07:21:26;;;;;;;;;;;5.50;99.90;;;5.00;100.00;96859.13;5039892;28;1519;-67
2023/11/12 07:23:54;;;;;;;;;;;5.50;99.90;;;4.98;100.00;96866.03;5041765;28;1337;-67
2023/11/12 07:26:21;;;;;;;;;;;5.50;99.90;;;4.74;100.00;96861.66;5042083;28;1380;-67
2023/11/12 07:28:48;;;;;;;;;;;5.50;99.90;;;4.96;100.00;96864.41;5045031;28;1283;-67
2023/11/12 07:31:16;;;;;;;;;;;5.60;99.90;;;4.85;100.00;96874.19;5039766;28;1501;-67
2023/11/12 07:33:43;;;;;;;;;;;5.60;99.90;;;4.70;100.00;96876.34;5040076;28;2034;-67
2023/11/12 07:36:12;;;;;;;;;;;5.60;99.90;;;4.91;100.00;96887.69;5039695;28;1464;-68
2023/11/12 07:38:40;;;;;;;;;;;5.60;99.90;;;4.89;100.00;96884.34;5042730;28;1520;-68
2023/11/12 07:41:08;;;;;;;;;;;5.70;99.90;;;5.02;100.00;96887.38;5042669;28;1564;-67
2023/11/12 07:43:35;;;;;;;;;;;5.70;99.90;;;4.92;100.00;96883.38;5037193;28;1383;-67
2023/11/12 07:46:03;;;;;;;;;;;5.70;99.90;;;5.02;100.00;96887.38;5040970;28;1489;-67
2023/11/12 07:48:32;;;;;;;;;;;5.70;99.90;;;5.07;100.00;96880.34;5041563;28;1397;-68
2023/11/12 07:50:59;;;;;;;;;;;5.80;99.90;;;5.01;100.00;96888.25;5045272;28;1480;-67
2023/11/12 07:53:27;;;;;;;;;;;5.80;99.90;;;5.03;100.00;96884.72;5041075;28;1977;-67
2023/11/12 07:55:54;;;;;;;;;;;5.80;99.90;;;5.13;100.00;96895.59;5038949;28;1389;-67
2023/11/12 07:58:20;;;;;;;;;;;5.80;99.90;;;5.31;100.00;96885.56;5037457;28;1461;-67
2023/11/12 08:00:47;;;;;;;;;;;5.90;99.90;;;5.17;100.00;96880.88;5041322;28;1406;-67
2023/11/12 08:03:14;;;;;;;;;;;6.00;99.90;;;5.31;100.00;96888.97;5040131;28;1458;-67
2023/11/12 08:05:41;;;;;;;;;;;6.00;99.90;;;5.56;100.00;96890.75;5043321;28;1231;-67
2023/11/12 08:08:08;;;;;;;;;;;6.00;99.90;;;5.18;100.00;96888.56;5045242;28;1436;-67
2023/11/12 08:10:37;;;;;;;;;;;6.00;99.90;;;5.39;100.00;96897.31;5041471;28;1390;-67
2023/11/12 08:13:04;;;;;;;;;;;6.20;99.90;;;5.36;100.00;96888.84;5036560;28;1971;-67
2023/11/12 08:15:31;;;;;;;;;;;6.20;99.90;;;5.42;100.00;96891.22;5043612;28;1656;-67
2023/11/12 08:17:58;;;;;;;;;;;6.20;99.90;;;5.73;100.00;96887.63;5039414;28;1418;-67
2023/11/12 08:20:25;;;;;;;;;;;6.20;99.90;;;5.70;100.00;96890.28;5038676;28;1579;-67
2023/11/12 08:22:52;;;;;;;;;;;6.40;99.90;;;5.69;100.00;96896.34;5042895;28;1338;-67
2023/11/12 08:25:19;;;;;;;;;;;6.30;99.90;;;5.96;100.00;96890.25;5041708;28;1979;-67
2023/11/12 08:27:46;;;;;;;;;;;6.30;99.90;;;5.96;100.00;96890.25;5041968;28;1571;-66
2023/11/12 08:30:13;;;;;;;;;;;6.20;99.90;;;5.70;100.00;96887.72;5042299;28;1461;-68
2023/11/12 08:32:40;;;;;;;;;;;6.30;99.90;;;5.97;100.00;96891.94;5039963;28;1987;-68
2023/11/12 08:35:07;;;;;;;;;;;6.30;99.90;;;6.14;100.00;96882.78;5039440;28;1564;-68
2023/11/12 08:37:35;;;;;;;;;;;6.40;99.90;;;6.45;100.00;96883.34;5040024;28;1570;-67
2023/11/12 08:40:03;;;;;;;;;;;6.60;99.90;;;6.55;100.00;96883.00;5038307;28;1429;-69
2023/11/12 08:42:30;;;;;;;;;;;6.80;99.90;;;6.38;100.00;96878.47;5041443;28;2042;-67
2023/11/12 08:44:57;;;;;;;;;;;6.90;99.90;;;6.44;100.00;96871.34;5040743;28;1437;-67
2023/11/12 08:47:23;;;;;;;;;;;7.00;99.90;;;6.25;100.00;96871.19;5040395;28;1453;-67
2023/11/12 08:49:51;;;;;;;;;;;7.00;99.90;;;6.18;100.00;96867.16;5045279;28;1382;-67
2023/11/12 08:52:18;;;;;;;;;;;7.00;99.90;;;6.22;100.00;96865.28;5040183;28;1997;-67
2023/11/12 08:54:45;;;;;;;;;;;6.90;99.90;;;6.18;100.00;96869.75;5042868;28;1517;-68
2023/11/12 08:57:12;;;;;;;;;;;6.80;99.90;;;6.47;100.00;96873.78;5037007;28;1709;-68
2023/11/12 08:59:39;;;;;;;;;;;6.90;99.90;;;6.52;100.00;96865.88;5036994;28;1435;-67
2023/11/12 09:02:08;;;;;;;;;;;7.10;99.90;;;6.90;100.00;96866.16;5044697;28;1410;-66
2023/11/12 09:04:35;;;;;;;;;;;7.30;99.90;;;6.51;100.00;96863.38;5039179;28;1085;-66
2023/11/12 09:07:02;;;;;;;;;;;7.40;99.90;;;6.69;100.00;96862.69;5038552;28;1259;-67
2023/11/12 09:09:32;;;;;;;;;;;7.50;99.90;;;7.06;100.00;96859.47;5041791;28;1062;-67
2023/11/12 09:12:00;;;;;;;;;;;7.50;99.90;;;6.92;100.00;96854.03;5039297;28;1912;-69
2023/11/12 09:14:26;;;;;;;;;;;7.60;99.90;;;6.88;100.00;96862.78;5036487;28;1987;-67
2023/11/12 09:16:53;;;;;;;;;;;7.60;99.90;;;6.86;100.00;96868.00;5042682;28;1644;-67
2023/11/12 09:19:21;;;;;;;;;;;7.50;99.90;;;7.07;100.00;96865.47;5036498;28;1058;-69
2023/11/12 09:22:02;;;;;;;;;;;7.50;99.90;;;7.32;100.00;96860.16;5046367;28;1276;-69
2023/11/12 09:24:30;;;;;;;;;;;7.70;99.90;;;7.21;100.00;96863.19;5036228;28;1072;-69
2023/11/12 09:26:57;;;;;;;;;;;7.70;99.90;;;7.66;100.00;96856.19;5037556;28;1447;-69
2023/11/12 09:29:24;;;;;;;;;;;7.80;99.90;;;7.82;100.00;96857.19;5038229;28;1417;-68
2023/11/12 09:31:51;;;;;;;;;;;7.90;99.90;;;7.70;100.00;96850.81;5040005;28;1536;-69
2023/11/12 09:34:18;;;;;;;;;;;8.10;99.90;;;7.77;100.00;96851.38;5034356;28;1902;-67
2023/11/12 09:36:45;;;;;;;;;;;8.10;99.90;;;7.71;100.00;96862.84;5036768;28;1500;-67
2023/11/12 09:39:13;;;;;;;;;;;7.90;99.90;;;7.58;100.00;96866.84;5038455;28;1070;-70
2023/11/12 09:41:49;;;;;;;;;;;7.70;99.90;;;6.79;100.00;96878.63;5037499;28;1414;-69
2023/11/12 09:44:17;;;;;;;;;;;7.30;99.90;;;6.61;100.00;96883.59;5040394;28;1363;-69
2023/11/12 09:47:11;;;;;;;;;;;7.00;99.90;;;6.35;100.00;96887.16;5042711;28;1486;-68
2023/11/12 09:49:38;;;;;;;;;;;7.00;99.90;;;6.04;100.00;96898.56;5038482;28;1378;-69
2023/11/12 09:52:05;;;;;;;;;;;7.10;99.90;;;6.12;100.00;96916.31;5037706;28;1372;-69
2023/11/12 09:54:35;;;;;;;;;;;6.80;99.90;;;5.98;100.00;96923.72;5038892;28;1898;-68
2023/11/12 09:57:02;;;;;;;;;;;6.60;99.90;;;6.09;100.00;96919.03;5055250;28;1416;-68
2023/11/12 09:59:36;;;;;;;;;;;6.50;99.90;;;6.31;100.00;96915.66;5038607;28;1389;-69
2023/11/12 10:02:06;;;;;;;;;;;6.70;99.90;;;6.45;100.00;96916.88;5038792;28;1434;-68
2023/11/12 10:04:33;;;;;;;;;;;6.90;99.90;;;6.74;100.00;96912.34;5039570;28;1388;-69
2023/11/12 10:07:01;;;;;;;;;;;7.20;99.90;;;6.79;100.00;96914.75;5038712;28;1502;-69
2023/11/12 10:09:28;;;;;;;;;;;7.40;99.90;;;6.73;100.00;96912.38;5038425;28;1174;-71
2023/11/12 10:12:06;;;;;;;;;;;7.50;99.90;;;6.99;100.00;96907.06;5041180;28;1446;-69
2023/11/12 10:14:33;;;;;;;;;;;7.60;99.90;;;7.08;100.00;96896.38;5036535;28;1903;-69
2023/11/12 10:17:07;;;;;;;;;;;7.60;99.90;;;7.17;100.00;96896.94;5039544;28;2089;-66
2023/11/12 10:19:35;;;;;;;;;;;7.70;99.90;;;6.81;100.00;96902.63;5037694;28;1443;-69
2023/11/12 10:22:03;;;;;;;;;;;7.50;99.90;;;6.46;100.00;96902.22;5024987;28;1643;-69
2023/11/12 10:24:31;;;;;;;;;;;7.20;99.90;;;6.41;100.00;96891.22;5040088;28;1395;-69
2023/11/12 10:27:03;;;;;;;;;;;7.10;99.90;;;6.25;100.00;96885.81;5055038;28;997;-69
2023/11/12 10:29:31;;;;;;;;;;;6.90;99.90;;;6.18;100.00;96899.78;5041396;28;1426;-68
2023/11/12 10:31:59;;;;;;;;;;;6.80;99.90;;;6.24;100.00;96897.00;5037401;28;1458;-68
2023/11/12 10:34:27;;;;;;;;;;;6.80;99.90;;;6.07;100.00;96895.03;5039004;28;1981;-68
2023/11/12 10:37:01;;;;;;;;;;;6.90;99.90;;;6.32;100.00;96907.03;5040000;28;1506;-68
2023/11/12 10:39:36;;;;;;;;;;;7.00;99.90;;;6.43;100.00;96899.75;5034686;28;1310;-69
2023/11/12 10:42:03;;;;;;;;;;;7.10;99.90;;;6.50;100.00;96898.66;5039269;28;1311;-68
2023/11/12 10:44:34;;;;;;;;;;;7.20;99.90;;;6.32;100.00;96901.88;5032155;28;997;-68
2023/11/12 10:47:03;;;;;;;;;;;7.20;99.90;;;6.27;100.00;96899.47;5036873;28;1535;-68
2023/11/12 10:49:32;;;;;;;;;;;7.10;99.90;;;6.28;100.00;96902.00;5035499;28;1096;-68
2023/11/12 10:52:00;;;;;;;;;;;7.10;99.90;;;6.37;100.00;96905.97;5034627;28;1349;-69
2023/11/12 10:54:31;;;;;;;;;;;7.00;99.90;;;6.60;100.00;96899.97;5053118;28;1938;-67
2023/11/12 10:56:59;;;;;;;;;;;7.00;99.90;;;6.42;100.00;96898.06;5038086;28;1620;-69
2023/11/12 10:59:30;;;;;;;;;;;7.10;99.90;;;6.48;100.00;96887.53;5032746;28;993;-67
2023/11/12 11:01:59;;;;;;;;;;;7.20;99.90;;;7.03;100.00;96879.44;5036419;28;1491;-69
2023/11/12 11:04:29;;;;;;;;;;;7.40;99.90;;;7.09;100.00;96874.88;5036176;28;1358;-68
2023/11/12 11:06:56;;;;;;;;;;;7.60;99.90;;;6.98;100.00;96871.88;5039642;28;1125;-69
2023/11/12 11:09:23;;;;;;;;;;;7.70;99.90;;;7.21;100.00;96877.84;5037656;28;1367;-69
2023/11/12 11:11:50;;;;;;;;;;;7.90;99.90;;;7.49;100.00;96873.22;5031332;28;1390;-69
2023/11/12 11:14:35;;;;;;;;;;;8.00;99.90;;;6.98;100.00;96871.00;5037122;28;2011;-68
2023/11/12 11:17:05;;;;;;;;;;;7.80;99.90;;;7.22;100.00;96866.63;5034956;28;1408;-68
2023/11/12 11:19:48;;;;;;;;;;;7.80;99.90;;;7.31;100.00;96868.81;5035112;28;1500;-68
2023/11/12 11:22:29;;;;;;;;;;;7.90;99.90;;;7.45;100.00;96860.50;5037068;28;1483;-68
2023/11/12 11:24:56;;;;;;;;;;;7.90;99.90;;;7.48;100.00;96855.19;5038622;28;1356;-68
2023/11/12 11:27:26;;;;;;;;;;;8.10;99.90;;;7.96;100.00;96854.88;5041026;28;1366;-68
2023/11/12 11:30:14;;;;;;;;;;;8.30;99.90;;;8.08;100.00;96845.72;5037954;28;1697;-68
2023/11/12 11:32:59;;;;;;;;;;;8.50;99.90;;;8.06;100.00;96838.97;5044475;28;1505;-68
2023/11/12 11:35:27;;;;;;;;;;;8.50;99.90;;;8.01;100.00;96840.91;5041409;28;1817;-68
2023/11/12 11:38:12;;;;;;;;;;;8.70;99.90;;;7.60;100.00;96843.53;5042020;28;1423;-68